Accueil
METAR-TAF:

METAR-TAF

Aéroports :

Châlons-en-Champagne, France

Aéroport Paris Vatry

latitude: 48-46-34N, longitude: 004-11-04E, altitude: 179 m

Observation

Le bulletin a été fait il y a 17 minutes, à 21:30 UTC
Vent 5 kt de nord
Température 5°C
Humidité 70%
Pression 1022 hPa
Visibilité 10 km ou plus
pas de nuages en-dessous de 1500 mètres et pas de cumulonimbus.

METAR: LFOK 232130Z AUTO 36005KT CAVOK 05/M00 Q1022 NOSIG

Heure: 23:47 (21:47 UTC)

Prévision

Le bulletin a été fait il y a 4 heures et 47 minutes, à 17:00 UTC
Prévision valable du 23 à 18 UTC au 24 à 18 UTC
Vent 7 kt de nord/nord-est
Visibilité 10 km ou plus
pas de nuages en-dessous de 1500 mètres et pas de cumulonimbus.

TAF: LFOK 231700Z 2318/2418 02007KT CAVOK

Observations et prévisions météorologiques de plus de 4000 aéroports (messages METAR et TAF).

Les stations disponibles sont représentées par des disques jaunes et rouges sur la carte.

Passer la souris dessus pour voir le nom de la station.

Cliquer dessus pour voir les observations et prévisions météorologiques.

Pour changer de carte: cliquez sur les boutons verts avec une croix noire pour zoomer, sur le bouton vert avec un tiret pour effectuer un zoom arrière, ou sur les flèches vertes pour les cartes adjacentes.


METAR-TAF: